sensor_id;sensor_type;location;lat;lon;timestamp;P1;durP1;ratioP1;P2;durP2;ratioP2
30307;SDS011;17114;52.314;8.910;2024-03-02T00:00:51;15.32;;;9.82;;
30307;SDS011;17114;52.314;8.910;2024-03-02T00:03:18;15.55;;;10.45;;
30307;SDS011;17114;52.314;8.910;2024-03-02T00:05:49;14.98;;;9.80;;
30307;SDS011;17114;52.314;8.910;2024-03-02T00:08:24;14.00;;;9.80;;
30307;SDS011;17114;52.314;8.910;2024-03-02T00:10:52;15.18;;;10.40;;
30307;SDS011;17114;52.314;8.910;2024-03-02T00:13:25;14.43;;;9.75;;
30307;SDS011;17114;52.314;8.910;2024-03-02T00:15:53;13.20;;;9.63;;
30307;SDS011;17114;52.314;8.910;2024-03-02T00:18:31;16.35;;;9.98;;
30307;SDS011;17114;52.314;8.910;2024-03-02T00:21:01;14.68;;;10.05;;
30307;SDS011;17114;52.314;8.910;2024-03-02T00:23:30;14.07;;;10.05;;
30307;SDS011;17114;52.314;8.910;2024-03-02T00:25:58;14.25;;;9.45;;
30307;SDS011;17114;52.314;8.910;2024-03-02T00:28:30;13.82;;;10.02;;
30307;SDS011;17114;52.314;8.910;2024-03-02T00:31:05;15.20;;;10.70;;
30307;SDS011;17114;52.314;8.910;2024-03-02T00:33:42;14.65;;;10.05;;
30307;SDS011;17114;52.314;8.910;2024-03-02T00:36:11;17.85;;;10.10;;
30307;SDS011;17114;52.314;8.910;2024-03-02T00:38:46;14.38;;;10.13;;
30307;SDS011;17114;52.314;8.910;2024-03-02T00:41:22;16.17;;;9.88;;
30307;SDS011;17114;52.314;8.910;2024-03-02T00:44:03;16.33;;;10.43;;
30307;SDS011;17114;52.314;8.910;2024-03-02T00:46:41;15.05;;;9.98;;
30307;SDS011;17114;52.314;8.910;2024-03-02T00:49:22;15.27;;;9.90;;
30307;SDS011;17114;52.314;8.910;2024-03-02T00:51:51;14.63;;;10.18;;
30307;SDS011;17114;52.314;8.910;2024-03-02T00:54:20;15.48;;;10.25;;
30307;SDS011;17114;52.314;8.910;2024-03-02T00:56:50;16.75;;;10.35;;
30307;SDS011;17114;52.314;8.910;2024-03-02T00:59:18;14.00;;;10.20;;
30307;SDS011;17114;52.314;8.910;2024-03-02T01:01:45;14.95;;;9.60;;
30307;SDS011;17114;52.314;8.910;2024-03-02T01:04:14;15.45;;;9.98;;
30307;SDS011;17114;52.314;8.910;2024-03-02T01:06:44;13.95;;;10.05;;
30307;SDS011;17114;52.314;8.910;2024-03-02T01:09:12;15.98;;;10.80;;
30307;SDS011;17114;52.314;8.910;2024-03-02T01:11:39;15.18;;;10.23;;
30307;SDS011;17114;52.314;8.910;2024-03-02T01:14:06;16.05;;;10.70;;
30307;SDS011;17114;52.314;8.910;2024-03-02T01:16:33;15.95;;;10.68;;
30307;SDS011;17114;52.314;8.910;2024-03-02T01:18:59;17.63;;;10.95;;
30307;SDS011;17114;52.314;8.910;2024-03-02T01:21:27;20.48;;;10.50;;
30307;SDS011;17114;52.314;8.910;2024-03-02T01:23:54;16.42;;;10.75;;
30307;SDS011;17114;52.314;8.910;2024-03-02T01:26:21;17.40;;;10.90;;
30307;SDS011;17114;52.314;8.910;2024-03-02T01:28:48;16.38;;;10.60;;
30307;SDS011;17114;52.314;8.910;2024-03-02T01:31:15;19.10;;;11.95;;
30307;SDS011;17114;52.314;8.910;2024-03-02T01:33:42;15.90;;;10.70;;
30307;SDS011;17114;52.314;8.910;2024-03-02T01:36:12;17.40;;;11.02;;
30307;SDS011;17114;52.314;8.910;2024-03-02T01:38:39;15.25;;;10.60;;
30307;SDS011;17114;52.314;8.910;2024-03-02T01:41:06;15.82;;;10.77;;
30307;SDS011;17114;52.314;8.910;2024-03-02T01:43:33;16.52;;;10.30;;
30307;SDS011;17114;52.314;8.910;2024-03-02T01:46:03;16.98;;;10.90;;
30307;SDS011;17114;52.314;8.910;2024-03-02T01:48:30;15.10;;;10.38;;
30307;SDS011;17114;52.314;8.910;2024-03-02T01:50:57;14.25;;;9.73;;
30307;SDS011;17114;52.314;8.910;2024-03-02T01:53:24;16.73;;;10.20;;
30307;SDS011;17114;52.314;8.910;2024-03-02T01:55:51;15.40;;;10.10;;
30307;SDS011;17114;52.314;8.910;2024-03-02T01:58:18;15.82;;;10.13;;
30307;SDS011;17114;52.314;8.910;2024-03-02T02:00:45;18.63;;;10.70;;
30307;SDS011;17114;52.314;8.910;2024-03-02T02:03:12;15.10;;;9.68;;
30307;SDS011;17114;52.314;8.910;2024-03-02T02:05:41;13.18;;;9.35;;
30307;SDS011;17114;52.314;8.910;2024-03-02T02:08:08;17.50;;;9.60;;
30307;SDS011;17114;52.314;8.910;2024-03-02T02:10:36;14.63;;;9.20;;
30307;SDS011;17114;52.314;8.910;2024-03-02T02:13:03;14.93;;;9.18;;
30307;SDS011;17114;52.314;8.910;2024-03-02T02:15:30;15.88;;;9.98;;
30307;SDS011;17114;52.314;8.910;2024-03-02T02:17:58;13.93;;;9.32;;
30307;SDS011;17114;52.314;8.910;2024-03-02T02:20:26;14.52;;;9.77;;
30307;SDS011;17114;52.314;8.910;2024-03-02T02:25:24;15.15;;;8.50;;
30307;SDS011;17114;52.314;8.910;2024-03-02T02:27:52;13.32;;;9.43;;
30307;SDS011;17114;52.314;8.910;2024-03-02T02:30:20;14.07;;;9.10;;
30307;SDS011;17114;52.314;8.910;2024-03-02T02:33:05;15.27;;;10.00;;
30307;SDS011;17114;52.314;8.910;2024-03-02T02:35:32;14.38;;;9.57;;
30307;SDS011;17114;52.314;8.910;2024-03-02T02:37:59;15.50;;;9.32;;
30307;SDS011;17114;52.314;8.910;2024-03-02T02:40:27;15.60;;;9.73;;
30307;SDS011;17114;52.314;8.910;2024-03-02T02:42:57;13.95;;;9.57;;
30307;SDS011;17114;52.314;8.910;2024-03-02T02:45:25;14.38;;;9.35;;
30307;SDS011;17114;52.314;8.910;2024-03-02T02:47:52;13.32;;;8.80;;
30307;SDS011;17114;52.314;8.910;2024-03-02T02:50:19;14.18;;;9.85;;
30307;SDS011;17114;52.314;8.910;2024-03-02T02:52:47;15.13;;;10.00;;
30307;SDS011;17114;52.314;8.910;2024-03-02T02:55:14;14.10;;;10.25;;
30307;SDS011;17114;52.314;8.910;2024-03-02T02:57:42;13.70;;;9.73;;
30307;SDS011;17114;52.314;8.910;2024-03-02T03:00:14;15.95;;;9.75;;
30307;SDS011;17114;52.314;8.910;2024-03-02T03:02:44;17.50;;;10.00;;
30307;SDS011;17114;52.314;8.910;2024-03-02T03:05:14;15.43;;;10.05;;
30307;SDS011;17114;52.314;8.910;2024-03-02T03:07:42;19.63;;;10.90;;
30307;SDS011;17114;52.314;8.910;2024-03-02T03:10:11;14.05;;;9.43;;
30307;SDS011;17114;52.314;8.910;2024-03-02T03:12:38;15.20;;;10.15;;
30307;SDS011;17114;52.314;8.910;2024-03-02T03:15:07;18.02;;;10.50;;
30307;SDS011;17114;52.314;8.910;2024-03-02T03:17:35;13.65;;;9.52;;
30307;SDS011;17114;52.314;8.910;2024-03-02T03:20:03;15.50;;;10.57;;
30307;SDS011;17114;52.314;8.910;2024-03-02T03:22:32;15.77;;;10.02;;
30307;SDS011;17114;52.314;8.910;2024-03-02T03:24:58;16.27;;;10.50;;
30307;SDS011;17114;52.314;8.910;2024-03-02T03:27:26;15.15;;;10.00;;
30307;SDS011;17114;52.314;8.910;2024-03-02T03:29:53;14.52;;;10.13;;
30307;SDS011;17114;52.314;8.910;2024-03-02T03:32:21;15.15;;;10.18;;
30307;SDS011;17114;52.314;8.910;2024-03-02T03:34:49;16.20;;;10.77;;
30307;SDS011;17114;52.314;8.910;2024-03-02T03:37:16;16.02;;;10.85;;
30307;SDS011;17114;52.314;8.910;2024-03-02T03:39:43;16.38;;;11.13;;
30307;SDS011;17114;52.314;8.910;2024-03-02T03:42:10;18.52;;;12.18;;
30307;SDS011;17114;52.314;8.910;2024-03-02T03:44:37;17.00;;;11.15;;
30307;SDS011;17114;52.314;8.910;2024-03-02T03:47:05;17.90;;;11.68;;
30307;SDS011;17114;52.314;8.910;2024-03-02T03:49:32;21.85;;;11.52;;
30307;SDS011;17114;52.314;8.910;2024-03-02T03:51:59;19.13;;;11.80;;
30307;SDS011;17114;52.314;8.910;2024-03-02T03:54:26;18.95;;;12.13;;
30307;SDS011;17114;52.314;8.910;2024-03-02T03:56:53;22.38;;;13.50;;
30307;SDS011;17114;52.314;8.910;2024-03-02T03:59:20;21.15;;;12.85;;
30307;SDS011;17114;52.314;8.910;2024-03-02T04:01:47;18.50;;;12.15;;
30307;SDS011;17114;52.314;8.910;2024-03-02T04:04:14;18.33;;;11.88;;
30307;SDS011;17114;52.314;8.910;2024-03-02T04:06:41;20.75;;;13.40;;
30307;SDS011;17114;52.314;8.910;2024-03-02T04:09:08;20.05;;;12.60;;
30307;SDS011;17114;52.314;8.910;2024-03-02T04:11:35;23.90;;;13.40;;
30307;SDS011;17114;52.314;8.910;2024-03-02T04:14:02;22.20;;;13.10;;
30307;SDS011;17114;52.314;8.910;2024-03-02T04:16:29;22.42;;;13.90;;
30307;SDS011;17114;52.314;8.910;2024-03-02T04:18:56;23.80;;;13.63;;
30307;SDS011;17114;52.314;8.910;2024-03-02T04:21:23;20.75;;;13.52;;
30307;SDS011;17114;52.314;8.910;2024-03-02T04:23:50;22.20;;;14.02;;
30307;SDS011;17114;52.314;8.910;2024-03-02T04:26:18;22.58;;;14.15;;
30307;SDS011;17114;52.314;8.910;2024-03-02T04:28:48;21.48;;;13.52;;
30307;SDS011;17114;52.314;8.910;2024-03-02T04:31:15;23.77;;;14.20;;
30307;SDS011;17114;52.314;8.910;2024-03-02T04:33:43;22.45;;;13.63;;
30307;SDS011;17114;52.314;8.910;2024-03-02T04:36:10;23.05;;;14.68;;
30307;SDS011;17114;52.314;8.910;2024-03-02T04:38:37;21.70;;;14.30;;
30307;SDS011;17114;52.314;8.910;2024-03-02T04:41:05;21.05;;;14.48;;
30307;SDS011;17114;52.314;8.910;2024-03-02T04:43:32;21.38;;;14.10;;
30307;SDS011;17114;52.314;8.910;2024-03-02T04:46:00;25.95;;;16.33;;
30307;SDS011;17114;52.314;8.910;2024-03-02T04:48:28;26.27;;;15.57;;
30307;SDS011;17114;52.314;8.910;2024-03-02T04:50:55;23.73;;;14.98;;
30307;SDS011;17114;52.314;8.910;2024-03-02T04:53:22;23.45;;;14.93;;
30307;SDS011;17114;52.314;8.910;2024-03-02T04:55:49;22.77;;;14.75;;
30307;SDS011;17114;52.314;8.910;2024-03-02T04:58:38;22.98;;;15.20;;
30307;SDS011;17114;52.314;8.910;2024-03-02T05:01:05;28.67;;;15.80;;
30307;SDS011;17114;52.314;8.910;2024-03-02T05:03:32;24.73;;;15.93;;
30307;SDS011;17114;52.314;8.910;2024-03-02T05:06:01;24.85;;;16.00;;
30307;SDS011;17114;52.314;8.910;2024-03-02T05:08:28;24.90;;;15.68;;
30307;SDS011;17114;52.314;8.910;2024-03-02T05:10:55;26.83;;;15.10;;
30307;SDS011;17114;52.314;8.910;2024-03-02T05:13:42;25.70;;;15.10;;
30307;SDS011;17114;52.314;8.910;2024-03-02T05:16:09;28.77;;;16.75;;
30307;SDS011;17114;52.314;8.910;2024-03-02T05:18:37;26.90;;;16.02;;
30307;SDS011;17114;52.314;8.910;2024-03-02T05:21:05;26.40;;;16.23;;
30307;SDS011;17114;52.314;8.910;2024-03-02T05:23:32;28.88;;;16.90;;
30307;SDS011;17114;52.314;8.910;2024-03-02T05:25:59;26.80;;;16.67;;
30307;SDS011;17114;52.314;8.910;2024-03-02T05:28:26;27.55;;;16.27;;
30307;SDS011;17114;52.314;8.910;2024-03-02T05:30:53;30.67;;;17.45;;
30307;SDS011;17114;52.314;8.910;2024-03-02T05:33:20;27.88;;;17.35;;
30307;SDS011;17114;52.314;8.910;2024-03-02T05:35:49;30.48;;;17.25;;
30307;SDS011;17114;52.314;8.910;2024-03-02T05:38:18;30.55;;;17.58;;
30307;SDS011;17114;52.314;8.910;2024-03-02T05:40:45;32.45;;;18.42;;
30307;SDS011;17114;52.314;8.910;2024-03-02T05:43:12;29.70;;;17.27;;
30307;SDS011;17114;52.314;8.910;2024-03-02T05:45:39;29.58;;;17.73;;
30307;SDS011;17114;52.314;8.910;2024-03-02T05:48:07;29.33;;;17.27;;
30307;SDS011;17114;52.314;8.910;2024-03-02T05:50:34;30.65;;;18.42;;
30307;SDS011;17114;52.314;8.910;2024-03-02T05:53:01;31.20;;;17.90;;
30307;SDS011;17114;52.314;8.910;2024-03-02T05:55:28;31.13;;;18.35;;
30307;SDS011;17114;52.314;8.910;2024-03-02T05:57:55;30.60;;;18.40;;
30307;SDS011;17114;52.314;8.910;2024-03-02T06:00:43;32.05;;;18.40;;
30307;SDS011;17114;52.314;8.910;2024-03-02T06:03:10;30.33;;;18.15;;
30307;SDS011;17114;52.314;8.910;2024-03-02T06:05:37;33.63;;;19.02;;
30307;SDS011;17114;52.314;8.910;2024-03-02T06:08:04;37.60;;;19.65;;
30307;SDS011;17114;52.314;8.910;2024-03-02T06:10:31;32.50;;;18.55;;
30307;SDS011;17114;52.314;8.910;2024-03-02T06:12:58;36.15;;;17.58;;
30307;SDS011;17114;52.314;8.910;2024-03-02T06:15:26;29.05;;;18.35;;
30307;SDS011;17114;52.314;8.910;2024-03-02T06:17:53;32.22;;;17.98;;
30307;SDS011;17114;52.314;8.910;2024-03-02T06:20:20;32.35;;;19.05;;
30307;SDS011;17114;52.314;8.910;2024-03-02T06:22:47;33.55;;;18.52;;
30307;SDS011;17114;52.314;8.910;2024-03-02T06:25:14;33.75;;;19.27;;
30307;SDS011;17114;52.314;8.910;2024-03-02T06:27:41;35.85;;;18.50;;
30307;SDS011;17114;52.314;8.910;2024-03-02T06:30:08;31.08;;;18.50;;
30307;SDS011;17114;52.314;8.910;2024-03-02T06:32:36;90.85;;;42.00;;
30307;SDS011;17114;52.314;8.910;2024-03-02T06:35:03;63.67;;;33.50;;
30307;SDS011;17114;52.314;8.910;2024-03-02T06:37:32;34.63;;;20.15;;
30307;SDS011;17114;52.314;8.910;2024-03-02T06:39:59;32.80;;;19.60;;
30307;SDS011;17114;52.314;8.910;2024-03-02T06:42:26;34.20;;;18.80;;
30307;SDS011;17114;52.314;8.910;2024-03-02T06:44:53;31.40;;;18.77;;
30307;SDS011;17114;52.314;8.910;2024-03-02T06:47:20;31.77;;;19.20;;
30307;SDS011;17114;52.314;8.910;2024-03-02T06:49:47;31.02;;;18.65;;
30307;SDS011;17114;52.314;8.910;2024-03-02T06:52:14;30.90;;;18.55;;
30307;SDS011;17114;52.314;8.910;2024-03-02T06:54:41;31.63;;;18.30;;
30307;SDS011;17114;52.314;8.910;2024-03-02T06:57:08;34.75;;;19.25;;
30307;SDS011;17114;52.314;8.910;2024-03-02T06:59:35;33.55;;;19.60;;
30307;SDS011;17114;52.314;8.910;2024-03-02T07:02:02;31.38;;;17.92;;
30307;SDS011;17114;52.314;8.910;2024-03-02T07:04:29;29.77;;;18.20;;
30307;SDS011;17114;52.314;8.910;2024-03-02T07:06:56;31.42;;;18.35;;
30307;SDS011;17114;52.314;8.910;2024-03-02T07:09:23;30.15;;;17.75;;
30307;SDS011;17114;52.314;8.910;2024-03-02T07:11:50;32.00;;;18.20;;
30307;SDS011;17114;52.314;8.910;2024-03-02T07:14:17;31.52;;;16.70;;
30307;SDS011;17114;52.314;8.910;2024-03-02T07:16:44;31.13;;;17.35;;
30307;SDS011;17114;52.314;8.910;2024-03-02T07:19:11;29.52;;;18.00;;
30307;SDS011;17114;52.314;8.910;2024-03-02T07:21:38;30.00;;;16.75;;
30307;SDS011;17114;52.314;8.910;2024-03-02T07:24:05;31.88;;;16.65;;
30307;SDS011;17114;52.314;8.910;2024-03-02T07:26:35;30.65;;;16.67;;
30307;SDS011;17114;52.314;8.910;2024-03-02T07:29:05;33.30;;;17.27;;
30307;SDS011;17114;52.314;8.910;2024-03-02T07:31:32;26.98;;;16.42;;
30307;SDS011;17114;52.314;8.910;2024-03-02T07:33:59;28.75;;;16.25;;
30307;SDS011;17114;52.314;8.910;2024-03-02T07:36:26;37.47;;;17.45;;
30307;SDS011;17114;52.314;8.910;2024-03-02T07:38:54;30.95;;;17.17;;
30307;SDS011;17114;52.314;8.910;2024-03-02T07:41:21;34.65;;;17.80;;
30307;SDS011;17114;52.314;8.910;2024-03-02T07:43:48;34.50;;;18.27;;
30307;SDS011;17114;52.314;8.910;2024-03-02T07:46:15;31.15;;;16.45;;
30307;SDS011;17114;52.314;8.910;2024-03-02T07:48:42;26.73;;;16.02;;
30307;SDS011;17114;52.314;8.910;2024-03-02T07:51:09;31.27;;;18.08;;
30307;SDS011;17114;52.314;8.910;2024-03-02T07:53:36;29.42;;;17.10;;
30307;SDS011;17114;52.314;8.910;2024-03-02T07:56:04;28.33;;;16.48;;
30307;SDS011;17114;52.314;8.910;2024-03-02T07:58:32;28.85;;;17.02;;
30307;SDS011;17114;52.314;8.910;2024-03-02T08:01:02;29.23;;;17.42;;
30307;SDS011;17114;52.314;8.910;2024-03-02T08:03:29;28.10;;;16.30;;
30307;SDS011;17114;52.314;8.910;2024-03-02T08:05:58;30.35;;;18.20;;
30307;SDS011;17114;52.314;8.910;2024-03-02T08:08:25;38.35;;;19.88;;
30307;SDS011;17114;52.314;8.910;2024-03-02T08:10:52;29.75;;;17.95;;
30307;SDS011;17114;52.314;8.910;2024-03-02T08:13:19;28.65;;;16.98;;
30307;SDS011;17114;52.314;8.910;2024-03-02T08:15:46;27.83;;;16.00;;
30307;SDS011;17114;52.314;8.910;2024-03-02T08:18:13;30.75;;;16.60;;
30307;SDS011;17114;52.314;8.910;2024-03-02T08:20:40;28.30;;;15.90;;
30307;SDS011;17114;52.314;8.910;2024-03-02T08:23:07;28.23;;;16.35;;
30307;SDS011;17114;52.314;8.910;2024-03-02T08:25:34;26.35;;;16.27;;
30307;SDS011;17114;52.314;8.910;2024-03-02T08:28:01;30.27;;;16.63;;
30307;SDS011;17114;52.314;8.910;2024-03-02T08:30:28;25.98;;;16.05;;
30307;SDS011;17114;52.314;8.910;2024-03-02T08:32:55;24.75;;;15.02;;
30307;SDS011;17114;52.314;8.910;2024-03-02T08:35:22;26.70;;;14.77;;
30307;SDS011;17114;52.314;8.910;2024-03-02T08:37:49;27.15;;;15.75;;
30307;SDS011;17114;52.314;8.910;2024-03-02T08:40:16;24.75;;;14.30;;
30307;SDS011;17114;52.314;8.910;2024-03-02T08:42:45;22.13;;;14.23;;
30307;SDS011;17114;52.314;8.910;2024-03-02T08:45:12;20.27;;;13.60;;
30307;SDS011;17114;52.314;8.910;2024-03-02T08:47:40;22.33;;;13.45;;
30307;SDS011;17114;52.314;8.910;2024-03-02T08:50:07;23.08;;;13.95;;
30307;SDS011;17114;52.314;8.910;2024-03-02T08:52:35;22.50;;;13.57;;
30307;SDS011;17114;52.314;8.910;2024-03-02T08:55:02;21.98;;;13.10;;
30307;SDS011;17114;52.314;8.910;2024-03-02T08:57:29;19.98;;;12.80;;
30307;SDS011;17114;52.314;8.910;2024-03-02T08:59:56;21.00;;;13.27;;
30307;SDS011;17114;52.314;8.910;2024-03-02T09:02:24;20.67;;;12.95;;
30307;SDS011;17114;52.314;8.910;2024-03-02T09:04:51;21.48;;;12.40;;
30307;SDS011;17114;52.314;8.910;2024-03-02T09:07:18;19.45;;;12.23;;
30307;SDS011;17114;52.314;8.910;2024-03-02T09:09:45;18.48;;;12.00;;
30307;SDS011;17114;52.314;8.910;2024-03-02T09:12:12;19.63;;;11.90;;
30307;SDS011;17114;52.314;8.910;2024-03-02T09:14:40;22.20;;;13.27;;
30307;SDS011;17114;52.314;8.910;2024-03-02T09:17:07;17.85;;;11.90;;
30307;SDS011;17114;52.314;8.910;2024-03-02T09:19:37;20.67;;;11.77;;
30307;SDS011;17114;52.314;8.910;2024-03-02T09:22:04;19.95;;;11.63;;
30307;SDS011;17114;52.314;8.910;2024-03-02T09:24:32;17.88;;;11.52;;
30307;SDS011;17114;52.314;8.910;2024-03-02T09:27:02;18.15;;;12.07;;
30307;SDS011;17114;52.314;8.910;2024-03-02T09:29:29;17.63;;;11.65;;
30307;SDS011;17114;52.314;8.910;2024-03-02T09:31:56;18.85;;;10.77;;
30307;SDS011;17114;52.314;8.910;2024-03-02T09:34:23;17.88;;;11.43;;
30307;SDS011;17114;52.314;8.910;2024-03-02T09:36:50;19.85;;;11.93;;
30307;SDS011;17114;52.314;8.910;2024-03-02T09:39:18;17.67;;;10.95;;
30307;SDS011;17114;52.314;8.910;2024-03-02T09:41:45;15.93;;;10.77;;
30307;SDS011;17114;52.314;8.910;2024-03-02T09:44:13;18.77;;;11.35;;
30307;SDS011;17114;52.314;8.910;2024-03-02T09:46:40;16.45;;;10.73;;
30307;SDS011;17114;52.314;8.910;2024-03-02T09:49:11;14.43;;;10.13;;
30307;SDS011;17114;52.314;8.910;2024-03-02T09:51:38;15.43;;;10.55;;
30307;SDS011;17114;52.314;8.910;2024-03-02T09:54:10;15.65;;;10.35;;
30307;SDS011;17114;52.314;8.910;2024-03-02T09:56:47;14.32;;;9.43;;
30307;SDS011;17114;52.314;8.910;2024-03-02T09:59:14;15.32;;;10.15;;
30307;SDS011;17114;52.314;8.910;2024-03-02T10:02:00;16.63;;;10.70;;
30307;SDS011;17114;52.314;8.910;2024-03-02T10:04:29;15.93;;;10.77;;
30307;SDS011;17114;52.314;8.910;2024-03-02T10:07:15;15.70;;;10.25;;
30307;SDS011;17114;52.314;8.910;2024-03-02T10:09:47;15.45;;;10.13;;
30307;SDS011;17114;52.314;8.910;2024-03-02T10:12:16;16.20;;;10.43;;
30307;SDS011;17114;52.314;8.910;2024-03-02T10:14:44;13.98;;;9.50;;
30307;SDS011;17114;52.314;8.910;2024-03-02T10:17:12;15.13;;;9.88;;
30307;SDS011;17114;52.314;8.910;2024-03-02T10:19:40;14.02;;;9.57;;
30307;SDS011;17114;52.314;8.910;2024-03-02T10:22:08;15.35;;;9.35;;
30307;SDS011;17114;52.314;8.910;2024-03-02T10:24:40;15.20;;;9.00;;
30307;SDS011;17114;52.314;8.910;2024-03-02T10:27:18;11.52;;;8.57;;
30307;SDS011;17114;52.314;8.910;2024-03-02T10:29:53;13.02;;;8.57;;
30307;SDS011;17114;52.314;8.910;2024-03-02T10:32:22;12.80;;;8.77;;
30307;SDS011;17114;52.314;8.910;2024-03-02T10:34:49;12.35;;;8.02;;
30307;SDS011;17114;52.314;8.910;2024-03-02T10:37:17;13.48;;;9.07;;
30307;SDS011;17114;52.314;8.910;2024-03-02T10:39:45;14.93;;;9.55;;
30307;SDS011;17114;52.314;8.910;2024-03-02T10:42:13;14.27;;;9.20;;
30307;SDS011;17114;52.314;8.910;2024-03-02T10:44:41;13.48;;;9.23;;
30307;SDS011;17114;52.314;8.910;2024-03-02T10:47:09;12.18;;;8.40;;
30307;SDS011;17114;52.314;8.910;2024-03-02T10:49:41;13.73;;;8.80;;
30307;SDS011;17114;52.314;8.910;2024-03-02T10:52:10;13.48;;;8.07;;
30307;SDS011;17114;52.314;8.910;2024-03-02T10:54:37;12.70;;;8.73;;
30307;SDS011;17114;52.314;8.910;2024-03-02T10:57:07;11.45;;;7.20;;
30307;SDS011;17114;52.314;8.910;2024-03-02T10:59:37;11.05;;;7.40;;
30307;SDS011;17114;52.314;8.910;2024-03-02T11:02:19;11.05;;;7.18;;
30307;SDS011;17114;52.314;8.910;2024-03-02T11:04:49;13.88;;;7.88;;
30307;SDS011;17114;52.314;8.910;2024-03-02T11:07:21;11.43;;;7.40;;
30307;SDS011;17114;52.314;8.910;2024-03-02T11:10:01;13.65;;;7.60;;
30307;SDS011;17114;52.314;8.910;2024-03-02T11:12:36;12.10;;;7.18;;
30307;SDS011;17114;52.314;8.910;2024-03-02T11:15:09;9.98;;;6.70;;
30307;SDS011;17114;52.314;8.910;2024-03-02T11:17:39;11.00;;;7.20;;
30307;SDS011;17114;52.314;8.910;2024-03-02T11:20:08;12.60;;;7.10;;
30307;SDS011;17114;52.314;8.910;2024-03-02T11:22:36;13.23;;;7.40;;
30307;SDS011;17114;52.314;8.910;2024-03-02T11:25:03;10.05;;;6.82;;
30307;SDS011;17114;52.314;8.910;2024-03-02T11:33:01;12.88;;;7.15;;
30307;SDS011;17114;52.314;8.910;2024-03-02T11:35:42;12.07;;;8.07;;
30307;SDS011;17114;52.314;8.910;2024-03-02T11:38:13;13.13;;;7.63;;
30307;SDS011;17114;52.314;8.910;2024-03-02T11:40:40;11.65;;;7.40;;
30307;SDS011;17114;52.314;8.910;2024-03-02T11:43:07;12.77;;;7.65;;
30307;SDS011;17114;52.314;8.910;2024-03-02T11:45:41;11.73;;;7.90;;
30307;SDS011;17114;52.314;8.910;2024-03-02T11:48:14;11.77;;;7.72;;
30307;SDS011;17114;52.314;8.910;2024-03-02T11:50:46;11.35;;;7.82;;
30307;SDS011;17114;52.314;8.910;2024-03-02T11:53:16;9.57;;;6.68;;
30307;SDS011;17114;52.314;8.910;2024-03-02T11:55:45;11.02;;;6.65;;
30307;SDS011;17114;52.314;8.910;2024-03-02T11:58:15;11.27;;;6.68;;
30307;SDS011;17114;52.314;8.910;2024-03-02T12:00:50;9.60;;;6.22;;
30307;SDS011;17114;52.314;8.910;2024-03-02T12:03:18;9.25;;;5.75;;
30307;SDS011;17114;52.314;8.910;2024-03-02T12:05:51;8.88;;;5.85;;
30307;SDS011;17114;52.314;8.910;2024-03-02T12:08:20;8.73;;;6.22;;
30307;SDS011;17114;52.314;8.910;2024-03-02T12:10:58;10.23;;;6.85;;
30307;SDS011;17114;52.314;8.910;2024-03-02T12:13:29;7.93;;;5.60;;
30307;SDS011;17114;52.314;8.910;2024-03-02T12:15:56;9.35;;;6.28;;
30307;SDS011;17114;52.314;8.910;2024-03-02T12:18:24;8.52;;;6.15;;
30307;SDS011;17114;52.314;8.910;2024-03-02T12:20:52;9.02;;;5.70;;
30307;SDS011;17114;52.314;8.910;2024-03-02T12:23:24;9.25;;;5.68;;
30307;SDS011;17114;52.314;8.910;2024-03-02T12:25:52;10.07;;;6.30;;
30307;SDS011;17114;52.314;8.910;2024-03-02T12:28:19;9.50;;;5.97;;
30307;SDS011;17114;52.314;8.910;2024-03-02T12:30:46;10.48;;;6.53;;
30307;SDS011;17114;52.314;8.910;2024-03-02T12:33:15;9.75;;;6.15;;
30307;SDS011;17114;52.314;8.910;2024-03-02T12:35:43;8.68;;;5.13;;
30307;SDS011;17114;52.314;8.910;2024-03-02T12:38:10;5.88;;;4.50;;
30307;SDS011;17114;52.314;8.910;2024-03-02T12:40:38;6.45;;;4.97;;
30307;SDS011;17114;52.314;8.910;2024-03-02T12:43:05;7.15;;;4.93;;
30307;SDS011;17114;52.314;8.910;2024-03-02T12:45:34;6.95;;;4.70;;
30307;SDS011;17114;52.314;8.910;2024-03-02T12:48:02;8.18;;;5.65;;
30307;SDS011;17114;52.314;8.910;2024-03-02T12:50:30;8.65;;;5.30;;
30307;SDS011;17114;52.314;8.910;2024-03-02T12:53:00;7.72;;;5.20;;
30307;SDS011;17114;52.314;8.910;2024-03-02T12:55:27;6.82;;;5.07;;
30307;SDS011;17114;52.314;8.910;2024-03-02T12:57:55;7.07;;;5.07;;
30307;SDS011;17114;52.314;8.910;2024-03-02T13:00:23;17.63;;;11.20;;
30307;SDS011;17114;52.314;8.910;2024-03-02T13:02:51;12.10;;;6.10;;
30307;SDS011;17114;52.314;8.910;2024-03-02T13:05:18;10.27;;;7.18;;
30307;SDS011;17114;52.314;8.910;2024-03-02T13:07:47;8.40;;;4.95;;
30307;SDS011;17114;52.314;8.910;2024-03-02T13:10:15;7.85;;;5.35;;
30307;SDS011;17114;52.314;8.910;2024-03-02T13:12:43;6.75;;;5.10;;
30307;SDS011;17114;52.314;8.910;2024-03-02T13:15:10;8.18;;;5.45;;
30307;SDS011;17114;52.314;8.910;2024-03-02T13:17:44;10.88;;;5.63;;
30307;SDS011;17114;52.314;8.910;2024-03-02T13:20:13;7.95;;;4.95;;
30307;SDS011;17114;52.314;8.910;2024-03-02T13:22:41;8.20;;;5.63;;
30307;SDS011;17114;52.314;8.910;2024-03-02T13:25:09;7.82;;;5.20;;
30307;SDS011;17114;52.314;8.910;2024-03-02T13:27:38;7.95;;;5.72;;
30307;SDS011;17114;52.314;8.910;2024-03-02T13:30:06;10.15;;;5.55;;
30307;SDS011;17114;52.314;8.910;2024-03-02T13:32:36;7.25;;;4.70;;
30307;SDS011;17114;52.314;8.910;2024-03-02T13:35:03;7.53;;;4.75;;
30307;SDS011;17114;52.314;8.910;2024-03-02T13:37:31;7.13;;;5.03;;
30307;SDS011;17114;52.314;8.910;2024-03-02T13:39:58;7.15;;;4.82;;
30307;SDS011;17114;52.314;8.910;2024-03-02T13:42:26;6.53;;;4.53;;
30307;SDS011;17114;52.314;8.910;2024-03-02T13:44:54;6.25;;;4.45;;
30307;SDS011;17114;52.314;8.910;2024-03-02T13:47:21;7.75;;;4.55;;
30307;SDS011;17114;52.314;8.910;2024-03-02T13:49:48;7.53;;;4.63;;
30307;SDS011;17114;52.314;8.910;2024-03-02T13:52:15;7.50;;;4.43;;
30307;SDS011;17114;52.314;8.910;2024-03-02T13:54:46;8.27;;;4.72;;
30307;SDS011;17114;52.314;8.910;2024-03-02T13:57:14;6.80;;;4.20;;
30307;SDS011;17114;52.314;8.910;2024-03-02T13:59:41;6.93;;;4.30;;
30307;SDS011;17114;52.314;8.910;2024-03-02T14:02:09;6.60;;;4.50;;
30307;SDS011;17114;52.314;8.910;2024-03-02T14:04:38;6.65;;;4.68;;
30307;SDS011;17114;52.314;8.910;2024-03-02T14:07:06;5.93;;;4.35;;
30307;SDS011;17114;52.314;8.910;2024-03-02T14:09:34;7.57;;;4.80;;
30307;SDS011;17114;52.314;8.910;2024-03-02T14:12:02;6.82;;;4.28;;
30307;SDS011;17114;52.314;8.910;2024-03-02T14:14:30;5.90;;;4.25;;
30307;SDS011;17114;52.314;8.910;2024-03-02T14:16:57;6.75;;;4.40;;
30307;SDS011;17114;52.314;8.910;2024-03-02T14:19:30;6.15;;;4.38;;
30307;SDS011;17114;52.314;8.910;2024-03-02T14:21:58;7.20;;;4.50;;
30307;SDS011;17114;52.314;8.910;2024-03-02T14:24:26;7.07;;;4.20;;
30307;SDS011;17114;52.314;8.910;2024-03-02T14:26:56;5.75;;;4.00;;
30307;SDS011;17114;52.314;8.910;2024-03-02T14:29:45;6.13;;;3.70;;
30307;SDS011;17114;52.314;8.910;2024-03-02T14:32:12;6.28;;;3.95;;
30307;SDS011;17114;52.314;8.910;2024-03-02T14:34:39;6.25;;;3.75;;
30307;SDS011;17114;52.314;8.910;2024-03-02T14:37:06;5.35;;;3.85;;
30307;SDS011;17114;52.314;8.910;2024-03-02T14:39:34;6.72;;;3.92;;
30307;SDS011;17114;52.314;8.910;2024-03-02T14:42:02;6.00;;;3.40;;
30307;SDS011;17114;52.314;8.910;2024-03-02T14:44:29;5.35;;;3.50;;